sensor_id;sensor_type;location;lat;lon;timestamp;P1;durP1;ratioP1;P2;durP2;ratioP2
51475;SDS011;37554;50.362;7.568;2022-11-21T00:03:48;1.30;;;0.40;;
51475;SDS011;37554;50.362;7.568;2022-11-21T00:06:14;3.42;;;0.30;;
51475;SDS011;37554;50.362;7.568;2022-11-21T00:08:40;1.80;;;0.60;;
51475;SDS011;37554;50.362;7.568;2022-11-21T00:11:06;1.63;;;0.50;;
51475;SDS011;37554;50.362;7.568;2022-11-21T00:13:32;1.65;;;0.50;;
51475;SDS011;37554;50.362;7.568;2022-11-21T00:16:07;0.88;;;0.40;;
51475;SDS011;37554;50.362;7.568;2022-11-21T00:18:35;1.17;;;0.40;;
51475;SDS011;37554;50.362;7.568;2022-11-21T00:21:07;0.88;;;0.35;;
51475;SDS011;37554;50.362;7.568;2022-11-21T00:23:36;1.70;;;0.47;;
51475;SDS011;37554;50.362;7.568;2022-11-21T00:26:05;0.95;;;0.40;;
51475;SDS011;37554;50.362;7.568;2022-11-21T00:28:32;0.82;;;0.30;;
51475;SDS011;37554;50.362;7.568;2022-11-21T00:30:58;1.63;;;0.55;;
51475;SDS011;37554;50.362;7.568;2022-11-21T00:33:24;1.48;;;0.50;;
51475;SDS011;37554;50.362;7.568;2022-11-21T00:35:49;1.58;;;0.32;;
51475;SDS011;37554;50.362;7.568;2022-11-21T00:38:15;1.48;;;0.50;;
51475;SDS011;37554;50.362;7.568;2022-11-21T00:40:44;1.73;;;0.40;;
51475;SDS011;37554;50.362;7.568;2022-11-21T00:43:09;1.88;;;0.57;;
51475;SDS011;37554;50.362;7.568;2022-11-21T00:45:35;2.05;;;0.50;;
51475;SDS011;37554;50.362;7.568;2022-11-21T00:48:01;0.85;;;0.40;;
51475;SDS011;37554;50.362;7.568;2022-11-21T00:50:27;0.90;;;0.40;;
51475;SDS011;37554;50.362;7.568;2022-11-21T00:52:57;2.00;;;0.70;;
51475;SDS011;37554;50.362;7.568;2022-11-21T00:55:23;1.02;;;0.40;;
51475;SDS011;37554;50.362;7.568;2022-11-21T00:57:49;0.95;;;0.38;;
51475;SDS011;37554;50.362;7.568;2022-11-21T01:00:15;1.13;;;0.40;;
51475;SDS011;37554;50.362;7.568;2022-11-21T01:02:41;1.58;;;0.50;;
51475;SDS011;37554;50.362;7.568;2022-11-21T01:05:07;1.65;;;0.40;;
51475;SDS011;37554;50.362;7.568;2022-11-21T01:07:33;1.25;;;0.50;;
51475;SDS011;37554;50.362;7.568;2022-11-21T01:09:58;1.80;;;0.47;;
51475;SDS011;37554;50.362;7.568;2022-11-21T01:12:24;1.10;;;0.43;;
51475;SDS011;37554;50.362;7.568;2022-11-21T01:14:50;1.02;;;0.40;;
51475;SDS011;37554;50.362;7.568;2022-11-21T01:17:15;2.80;;;0.40;;
51475;SDS011;37554;50.362;7.568;2022-11-21T01:19:41;1.80;;;0.55;;
51475;SDS011;37554;50.362;7.568;2022-11-21T01:22:06;1.08;;;0.40;;
51475;SDS011;37554;50.362;7.568;2022-11-21T01:24:32;0.75;;;0.30;;
51475;SDS011;37554;50.362;7.568;2022-11-21T01:26:57;1.88;;;0.38;;
51475;SDS011;37554;50.362;7.568;2022-11-21T01:29:23;1.42;;;0.40;;
51475;SDS011;37554;50.362;7.568;2022-11-21T01:31:49;1.83;;;0.52;;
51475;SDS011;37554;50.362;7.568;2022-11-21T01:34:14;1.63;;;0.50;;
51475;SDS011;37554;50.362;7.568;2022-11-21T01:36:40;1.42;;;0.50;;
51475;SDS011;37554;50.362;7.568;2022-11-21T01:39:06;1.55;;;0.50;;
51475;SDS011;37554;50.362;7.568;2022-11-21T01:41:33;1.20;;;0.32;;
51475;SDS011;37554;50.362;7.568;2022-11-21T01:44:02;1.30;;;0.38;;
51475;SDS011;37554;50.362;7.568;2022-11-21T01:46:40;2.60;;;0.40;;
51475;SDS011;37554;50.362;7.568;2022-11-21T01:49:14;1.08;;;0.32;;
51475;SDS011;37554;50.362;7.568;2022-11-21T01:51:55;1.25;;;0.50;;
51475;SDS011;37554;50.362;7.568;2022-11-21T01:54:36;1.15;;;0.47;;
51475;SDS011;37554;50.362;7.568;2022-11-21T02:02:28;1.67;;;0.45;;
51475;SDS011;37554;50.362;7.568;2022-11-21T02:04:56;1.50;;;0.57;;
51475;SDS011;37554;50.362;7.568;2022-11-21T02:07:25;2.35;;;0.57;;
51475;SDS011;37554;50.362;7.568;2022-11-21T02:09:53;1.02;;;0.40;;
51475;SDS011;37554;50.362;7.568;2022-11-21T02:12:24;1.85;;;0.60;;
51475;SDS011;37554;50.362;7.568;2022-11-21T02:15:02;1.92;;;0.50;;
51475;SDS011;37554;50.362;7.568;2022-11-21T02:17:28;1.85;;;0.57;;
51475;SDS011;37554;50.362;7.568;2022-11-21T02:19:58;1.63;;;0.50;;
51475;SDS011;37554;50.362;7.568;2022-11-21T02:27:34;2.72;;;0.70;;
51475;SDS011;37554;50.362;7.568;2022-11-21T02:30:03;2.72;;;0.52;;
51475;SDS011;37554;50.362;7.568;2022-11-21T02:32:37;1.40;;;0.47;;
51475;SDS011;37554;50.362;7.568;2022-11-21T02:35:04;2.05;;;0.68;;
51475;SDS011;37554;50.362;7.568;2022-11-21T02:37:30;2.72;;;0.88;;
51475;SDS011;37554;50.362;7.568;2022-11-21T02:40:00;2.25;;;0.60;;
51475;SDS011;37554;50.362;7.568;2022-11-21T02:42:32;2.17;;;0.63;;
51475;SDS011;37554;50.362;7.568;2022-11-21T02:47:36;1.85;;;0.60;;
51475;SDS011;37554;50.362;7.568;2022-11-21T02:52:36;2.83;;;0.95;;
51475;SDS011;37554;50.362;7.568;2022-11-21T02:55:02;1.48;;;0.50;;
51475;SDS011;37554;50.362;7.568;2022-11-21T02:57:28;2.30;;;0.68;;
51475;SDS011;37554;50.362;7.568;2022-11-21T02:59:53;2.63;;;0.80;;
51475;SDS011;37554;50.362;7.568;2022-11-21T03:02:19;2.55;;;0.85;;
51475;SDS011;37554;50.362;7.568;2022-11-21T03:04:44;3.25;;;1.02;;
51475;SDS011;37554;50.362;7.568;2022-11-21T03:07:10;2.20;;;0.77;;
51475;SDS011;37554;50.362;7.568;2022-11-21T03:09:35;2.63;;;0.85;;
51475;SDS011;37554;50.362;7.568;2022-11-21T03:12:05;3.58;;;0.80;;
51475;SDS011;37554;50.362;7.568;2022-11-21T03:14:31;2.72;;;0.75;;
51475;SDS011;37554;50.362;7.568;2022-11-21T03:16:58;2.90;;;0.75;;
51475;SDS011;37554;50.362;7.568;2022-11-21T03:19:23;1.95;;;0.70;;
51475;SDS011;37554;50.362;7.568;2022-11-21T03:21:49;2.85;;;0.80;;
51475;SDS011;37554;50.362;7.568;2022-11-21T03:24:15;1.75;;;0.80;;
51475;SDS011;37554;50.362;7.568;2022-11-21T03:26:41;1.60;;;0.68;;
51475;SDS011;37554;50.362;7.568;2022-11-21T03:29:06;2.33;;;0.98;;
51475;SDS011;37554;50.362;7.568;2022-11-21T03:31:32;2.47;;;1.08;;
51475;SDS011;37554;50.362;7.568;2022-11-21T03:33:58;2.45;;;0.65;;
51475;SDS011;37554;50.362;7.568;2022-11-21T03:36:23;2.97;;;0.82;;
51475;SDS011;37554;50.362;7.568;2022-11-21T03:38:49;3.28;;;1.10;;
51475;SDS011;37554;50.362;7.568;2022-11-21T03:41:14;2.25;;;0.88;;
51475;SDS011;37554;50.362;7.568;2022-11-21T03:43:59;2.35;;;0.88;;
51475;SDS011;37554;50.362;7.568;2022-11-21T03:46:36;2.90;;;0.88;;
51475;SDS011;37554;50.362;7.568;2022-11-21T03:49:03;3.05;;;1.02;;
51475;SDS011;37554;50.362;7.568;2022-11-21T03:51:29;3.60;;;0.95;;
51475;SDS011;37554;50.362;7.568;2022-11-21T03:53:55;2.50;;;0.70;;
51475;SDS011;37554;50.362;7.568;2022-11-21T03:56:21;2.45;;;0.70;;
51475;SDS011;37554;50.362;7.568;2022-11-21T03:58:47;2.38;;;0.88;;
51475;SDS011;37554;50.362;7.568;2022-11-21T04:01:13;2.83;;;1.00;;
51475;SDS011;37554;50.362;7.568;2022-11-21T04:03:39;2.95;;;0.90;;
51475;SDS011;37554;50.362;7.568;2022-11-21T04:06:06;3.97;;;0.80;;
51475;SDS011;37554;50.362;7.568;2022-11-21T04:08:33;2.20;;;0.80;;
51475;SDS011;37554;50.362;7.568;2022-11-21T04:10:58;2.17;;;0.70;;
51475;SDS011;37554;50.362;7.568;2022-11-21T04:13:24;1.77;;;0.57;;
51475;SDS011;37554;50.362;7.568;2022-11-21T04:15:49;3.30;;;0.75;;
51475;SDS011;37554;50.362;7.568;2022-11-21T04:18:15;3.35;;;0.70;;
51475;SDS011;37554;50.362;7.568;2022-11-21T04:20:41;3.00;;;0.90;;
51475;SDS011;37554;50.362;7.568;2022-11-21T04:23:07;2.30;;;0.80;;
51475;SDS011;37554;50.362;7.568;2022-11-21T04:25:32;2.75;;;0.98;;
51475;SDS011;37554;50.362;7.568;2022-11-21T04:27:58;4.43;;;0.70;;
51475;SDS011;37554;50.362;7.568;2022-11-21T04:30:25;2.45;;;0.75;;
51475;SDS011;37554;50.362;7.568;2022-11-21T04:32:52;2.40;;;0.80;;
51475;SDS011;37554;50.362;7.568;2022-11-21T04:35:18;2.30;;;0.88;;
51475;SDS011;37554;50.362;7.568;2022-11-21T04:37:44;2.55;;;0.75;;
51475;SDS011;37554;50.362;7.568;2022-11-21T04:40:10;2.17;;;0.68;;
51475;SDS011;37554;50.362;7.568;2022-11-21T04:42:39;2.38;;;0.65;;
51475;SDS011;37554;50.362;7.568;2022-11-21T04:45:05;3.17;;;0.60;;
51475;SDS011;37554;50.362;7.568;2022-11-21T04:47:31;2.17;;;0.88;;
51475;SDS011;37554;50.362;7.568;2022-11-21T04:50:00;2.13;;;0.70;;
51475;SDS011;37554;50.362;7.568;2022-11-21T04:52:25;2.20;;;0.70;;
51475;SDS011;37554;50.362;7.568;2022-11-21T04:54:51;1.85;;;0.50;;
51475;SDS011;37554;50.362;7.568;2022-11-21T04:57:16;1.27;;;0.57;;
51475;SDS011;37554;50.362;7.568;2022-11-21T04:59:42;3.05;;;1.00;;
51475;SDS011;37554;50.362;7.568;2022-11-21T05:02:07;2.67;;;0.90;;
51475;SDS011;37554;50.362;7.568;2022-11-21T05:04:33;2.08;;;0.60;;
51475;SDS011;37554;50.362;7.568;2022-11-21T05:06:59;2.40;;;0.75;;
51475;SDS011;37554;50.362;7.568;2022-11-21T05:09:24;2.25;;;0.55;;
51475;SDS011;37554;50.362;7.568;2022-11-21T05:11:50;2.22;;;0.80;;
51475;SDS011;37554;50.362;7.568;2022-11-21T05:14:34;2.00;;;0.60;;
51475;SDS011;37554;50.362;7.568;2022-11-21T05:17:00;2.55;;;0.90;;
51475;SDS011;37554;50.362;7.568;2022-11-21T05:19:25;2.63;;;0.70;;
51475;SDS011;37554;50.362;7.568;2022-11-21T05:21:51;1.80;;;0.60;;
51475;SDS011;37554;50.362;7.568;2022-11-21T05:24:16;1.58;;;0.57;;
51475;SDS011;37554;50.362;7.568;2022-11-21T05:26:42;2.38;;;1.00;;
51475;SDS011;37554;50.362;7.568;2022-11-21T05:29:07;1.58;;;0.90;;
51475;SDS011;37554;50.362;7.568;2022-11-21T05:31:33;2.47;;;0.70;;
51475;SDS011;37554;50.362;7.568;2022-11-21T05:33:58;1.77;;;0.60;;
51475;SDS011;37554;50.362;7.568;2022-11-21T05:36:24;1.80;;;0.60;;
51475;SDS011;37554;50.362;7.568;2022-11-21T05:38:50;1.95;;;0.70;;
51475;SDS011;37554;50.362;7.568;2022-11-21T05:41:15;3.00;;;0.90;;
51475;SDS011;37554;50.362;7.568;2022-11-21T05:43:41;1.48;;;0.60;;
51475;SDS011;37554;50.362;7.568;2022-11-21T05:46:17;1.83;;;0.57;;
51475;SDS011;37554;50.362;7.568;2022-11-21T05:48:45;1.27;;;0.50;;
51475;SDS011;37554;50.362;7.568;2022-11-21T05:51:11;2.67;;;0.80;;
51475;SDS011;37554;50.362;7.568;2022-11-21T05:53:37;1.45;;;0.60;;
51475;SDS011;37554;50.362;7.568;2022-11-21T05:56:07;2.33;;;0.70;;
51475;SDS011;37554;50.362;7.568;2022-11-21T05:58:34;2.00;;;0.70;;
51475;SDS011;37554;50.362;7.568;2022-11-21T06:01:00;1.65;;;0.90;;
51475;SDS011;37554;50.362;7.568;2022-11-21T06:03:27;1.45;;;0.50;;
51475;SDS011;37554;50.362;7.568;2022-11-21T06:06:00;1.38;;;0.55;;
51475;SDS011;37554;50.362;7.568;2022-11-21T06:08:29;1.38;;;0.60;;
51475;SDS011;37554;50.362;7.568;2022-11-21T06:10:57;1.20;;;0.70;;
51475;SDS011;37554;50.362;7.568;2022-11-21T06:13:23;1.27;;;0.57;;
51475;SDS011;37554;50.362;7.568;2022-11-21T06:15:49;1.65;;;0.77;;
51475;SDS011;37554;50.362;7.568;2022-11-21T06:18:25;1.10;;;0.50;;
51475;SDS011;37554;50.362;7.568;2022-11-21T06:20:52;1.70;;;0.43;;
51475;SDS011;37554;50.362;7.568;2022-11-21T06:23:18;1.48;;;0.50;;
51475;SDS011;37554;50.362;7.568;2022-11-21T06:25:44;1.00;;;0.43;;
51475;SDS011;37554;50.362;7.568;2022-11-21T06:28:10;2.08;;;0.73;;
51475;SDS011;37554;50.362;7.568;2022-11-21T06:30:36;3.83;;;0.85;;
51475;SDS011;37554;50.362;7.568;2022-11-21T06:33:02;1.42;;;0.38;;
51475;SDS011;37554;50.362;7.568;2022-11-21T06:35:29;1.83;;;0.63;;
51475;SDS011;37554;50.362;7.568;2022-11-21T06:37:55;3.17;;;0.52;;
51475;SDS011;37554;50.362;7.568;2022-11-21T06:40:22;2.15;;;0.70;;
51475;SDS011;37554;50.362;7.568;2022-11-21T06:42:48;4.15;;;0.60;;
51475;SDS011;37554;50.362;7.568;2022-11-21T06:45:13;1.92;;;0.50;;
51475;SDS011;37554;50.362;7.568;2022-11-21T06:47:39;3.50;;;0.65;;
51475;SDS011;37554;50.362;7.568;2022-11-21T06:50:05;5.05;;;1.27;;
51475;SDS011;37554;50.362;7.568;2022-11-21T06:52:31;9.88;;;1.35;;
51475;SDS011;37554;50.362;7.568;2022-11-21T06:54:57;3.45;;;1.27;;
51475;SDS011;37554;50.362;7.568;2022-11-21T06:57:23;4.50;;;0.90;;
51475;SDS011;37554;50.362;7.568;2022-11-21T06:59:49;3.67;;;0.73;;
51475;SDS011;37554;50.362;7.568;2022-11-21T07:02:14;2.83;;;0.82;;
51475;SDS011;37554;50.362;7.568;2022-11-21T07:04:40;2.95;;;1.10;;
51475;SDS011;37554;50.362;7.568;2022-11-21T07:07:06;3.00;;;0.90;;
51475;SDS011;37554;50.362;7.568;2022-11-21T07:09:31;3.33;;;1.00;;
51475;SDS011;37554;50.362;7.568;2022-11-21T07:11:59;3.25;;;0.60;;
51475;SDS011;37554;50.362;7.568;2022-11-21T07:14:45;9.43;;;1.20;;
51475;SDS011;37554;50.362;7.568;2022-11-21T07:17:11;6.80;;;0.60;;
51475;SDS011;37554;50.362;7.568;2022-11-21T07:19:37;2.67;;;1.13;;
51475;SDS011;37554;50.362;7.568;2022-11-21T07:22:02;4.88;;;1.05;;
51475;SDS011;37554;50.362;7.568;2022-11-21T07:24:28;2.30;;;0.70;;
51475;SDS011;37554;50.362;7.568;2022-11-21T07:26:54;2.30;;;0.82;;
51475;SDS011;37554;50.362;7.568;2022-11-21T07:29:19;1.85;;;0.80;;
51475;SDS011;37554;50.362;7.568;2022-11-21T07:31:45;3.53;;;1.00;;
51475;SDS011;37554;50.362;7.568;2022-11-21T07:34:10;2.00;;;1.00;;
51475;SDS011;37554;50.362;7.568;2022-11-21T07:36:36;2.17;;;0.73;;
51475;SDS011;37554;50.362;7.568;2022-11-21T07:39:02;2.28;;;0.70;;
51475;SDS011;37554;50.362;7.568;2022-11-21T07:41:27;3.58;;;1.02;;
51475;SDS011;37554;50.362;7.568;2022-11-21T07:43:53;4.95;;;0.70;;
51475;SDS011;37554;50.362;7.568;2022-11-21T07:46:19;1.73;;;0.70;;
51475;SDS011;37554;50.362;7.568;2022-11-21T07:48:44;2.13;;;0.70;;
51475;SDS011;37554;50.362;7.568;2022-11-21T07:51:10;2.45;;;0.73;;
51475;SDS011;37554;50.362;7.568;2022-11-21T07:53:35;1.98;;;0.55;;
51475;SDS011;37554;50.362;7.568;2022-11-21T07:56:01;2.28;;;0.70;;
51475;SDS011;37554;50.362;7.568;2022-11-21T07:58:29;2.80;;;0.73;;
51475;SDS011;37554;50.362;7.568;2022-11-21T08:00:54;2.30;;;0.60;;
51475;SDS011;37554;50.362;7.568;2022-11-21T08:03:20;2.45;;;0.60;;
51475;SDS011;37554;50.362;7.568;2022-11-21T08:05:47;1.58;;;0.52;;
51475;SDS011;37554;50.362;7.568;2022-11-21T08:08:12;1.30;;;0.50;;
51475;SDS011;37554;50.362;7.568;2022-11-21T08:10:41;2.72;;;0.77;;
51475;SDS011;37554;50.362;7.568;2022-11-21T08:13:09;1.77;;;0.52;;
51475;SDS011;37554;50.362;7.568;2022-11-21T08:15:36;1.30;;;0.80;;
51475;SDS011;37554;50.362;7.568;2022-11-21T08:18:14;1.50;;;0.70;;
51475;SDS011;37554;50.362;7.568;2022-11-21T08:20:44;1.35;;;0.60;;
51475;SDS011;37554;50.362;7.568;2022-11-21T08:23:10;1.50;;;0.65;;
51475;SDS011;37554;50.362;7.568;2022-11-21T08:25:35;2.08;;;0.75;;
51475;SDS011;37554;50.362;7.568;2022-11-21T08:28:02;1.80;;;0.68;;
51475;SDS011;37554;50.362;7.568;2022-11-21T08:30:29;2.83;;;0.60;;
51475;SDS011;37554;50.362;7.568;2022-11-21T08:32:58;1.83;;;0.68;;
51475;SDS011;37554;50.362;7.568;2022-11-21T08:35:25;3.30;;;0.63;;
51475;SDS011;37554;50.362;7.568;2022-11-21T08:37:57;2.80;;;0.60;;
51475;SDS011;37554;50.362;7.568;2022-11-21T08:40:24;1.88;;;0.88;;
51475;SDS011;37554;50.362;7.568;2022-11-21T08:43:01;3.40;;;0.68;;
51475;SDS011;37554;50.362;7.568;2022-11-21T08:45:28;1.40;;;0.73;;
51475;SDS011;37554;50.362;7.568;2022-11-21T08:47:55;2.03;;;0.73;;
51475;SDS011;37554;50.362;7.568;2022-11-21T08:50:21;3.00;;;0.68;;
51475;SDS011;37554;50.362;7.568;2022-11-21T08:52:47;5.72;;;1.20;;
51475;SDS011;37554;50.362;7.568;2022-11-21T08:55:12;5.10;;;1.10;;
51475;SDS011;37554;50.362;7.568;2022-11-21T08:57:39;3.97;;;1.23;;
51475;SDS011;37554;50.362;7.568;2022-11-21T09:00:05;7.05;;;1.20;;
51475;SDS011;37554;50.362;7.568;2022-11-21T09:02:31;4.43;;;1.27;;
51475;SDS011;37554;50.362;7.568;2022-11-21T09:04:57;8.35;;;1.75;;
51475;SDS011;37554;50.362;7.568;2022-11-21T09:07:23;9.48;;;1.40;;
51475;SDS011;37554;50.362;7.568;2022-11-21T09:09:49;5.10;;;1.73;;
51475;SDS011;37554;50.362;7.568;2022-11-21T09:12:15;7.05;;;1.52;;
51475;SDS011;37554;50.362;7.568;2022-11-21T09:14:40;6.18;;;1.38;;
51475;SDS011;37554;50.362;7.568;2022-11-21T09:17:24;4.20;;;1.40;;
51475;SDS011;37554;50.362;7.568;2022-11-21T09:20:09;5.15;;;1.48;;
51475;SDS011;37554;50.362;7.568;2022-11-21T09:22:34;5.65;;;1.50;;
51475;SDS011;37554;50.362;7.568;2022-11-21T09:25:00;4.68;;;1.60;;
51475;SDS011;37554;50.362;7.568;2022-11-21T09:27:25;3.65;;;1.50;;
51475;SDS011;37554;50.362;7.568;2022-11-21T09:29:51;4.07;;;1.60;;
51475;SDS011;37554;50.362;7.568;2022-11-21T09:32:17;7.53;;;1.60;;
51475;SDS011;37554;50.362;7.568;2022-11-21T09:34:42;5.13;;;1.90;;
51475;SDS011;37554;50.362;7.568;2022-11-21T09:37:08;4.60;;;1.60;;
51475;SDS011;37554;50.362;7.568;2022-11-21T09:39:33;5.38;;;1.23;;
51475;SDS011;37554;50.362;7.568;2022-11-21T09:45:12;4.57;;;1.55;;
51475;SDS011;37554;50.362;7.568;2022-11-21T09:47:43;4.05;;;1.63;;
51475;SDS011;37554;50.362;7.568;2022-11-21T09:52:38;4.55;;;1.58;;
51475;SDS011;37554;50.362;7.568;2022-11-21T09:55:34;2.85;;;1.25;;
51475;SDS011;37554;50.362;7.568;2022-11-21T09:58:08;4.40;;;1.70;;
51475;SDS011;37554;50.362;7.568;2022-11-21T10:00:40;6.55;;;1.63;;
51475;SDS011;37554;50.362;7.568;2022-11-21T10:03:07;4.05;;;1.30;;
51475;SDS011;37554;50.362;7.568;2022-11-21T10:05:40;3.45;;;1.50;;
51475;SDS011;37554;50.362;7.568;2022-11-21T10:08:46;3.55;;;1.25;;
51475;SDS011;37554;50.362;7.568;2022-11-21T10:11:37;3.13;;;1.17;;
51475;SDS011;37554;50.362;7.568;2022-11-21T10:25:38;4.03;;;0.98;;
51475;SDS011;37554;50.362;7.568;2022-11-21T10:28:09;3.50;;;1.00;;
51475;SDS011;37554;50.362;7.568;2022-11-21T10:30:44;4.30;;;1.50;;
51475;SDS011;37554;50.362;7.568;2022-11-21T10:33:13;3.67;;;1.10;;
51475;SDS011;37554;50.362;7.568;2022-11-21T10:35:45;2.15;;;1.08;;
51475;SDS011;37554;50.362;7.568;2022-11-21T10:38:25;3.22;;;1.60;;
51475;SDS011;37554;50.362;7.568;2022-11-21T10:43:35;3.33;;;1.30;;
51475;SDS011;37554;50.362;7.568;2022-11-21T10:46:26;3.63;;;1.50;;
51475;SDS011;37554;50.362;7.568;2022-11-21T10:48:54;2.90;;;0.98;;
51475;SDS011;37554;50.362;7.568;2022-11-21T10:54:23;2.58;;;1.10;;
51475;SDS011;37554;50.362;7.568;2022-11-21T10:57:14;2.38;;;1.17;;
51475;SDS011;37554;50.362;7.568;2022-11-21T11:00:14;2.75;;;1.08;;
51475;SDS011;37554;50.362;7.568;2022-11-21T11:02:38;3.63;;;0.85;;
51475;SDS011;37554;50.362;7.568;2022-11-21T11:05:21;3.60;;;1.40;;
51475;SDS011;37554;50.362;7.568;2022-11-21T11:08:10;3.28;;;1.23;;
51475;SDS011;37554;50.362;7.568;2022-11-21T11:10:45;1.42;;;0.80;;
51475;SDS011;37554;50.362;7.568;2022-11-21T11:13:24;2.03;;;0.82;;
51475;SDS011;37554;50.362;7.568;2022-11-21T11:18:34;2.10;;;0.98;;
51475;SDS011;37554;50.362;7.568;2022-11-21T11:21:25;2.17;;;0.95;;
51475;SDS011;37554;50.362;7.568;2022-11-21T11:23:49;1.77;;;0.82;;
51475;SDS011;37554;50.362;7.568;2022-11-21T11:28:46;3.17;;;0.88;;
51475;SDS011;37554;50.362;7.568;2022-11-21T11:31:12;1.48;;;0.70;;
51475;SDS011;37554;50.362;7.568;2022-11-21T11:33:49;2.75;;;0.98;;
51475;SDS011;37554;50.362;7.568;2022-11-21T11:36:35;1.85;;;0.80;;
51475;SDS011;37554;50.362;7.568;2022-11-21T11:42:19;2.83;;;0.70;;
51475;SDS011;37554;50.362;7.568;2022-11-21T11:48:00;1.27;;;0.75;;
51475;SDS011;37554;50.362;7.568;2022-11-21T11:50:32;2.00;;;0.93;;
51475;SDS011;37554;50.362;7.568;2022-11-21T11:53:11;2.33;;;0.70;;
51475;SDS011;37554;50.362;7.568;2022-11-21T11:55:49;1.40;;;0.70;;
51475;SDS011;37554;50.362;7.568;2022-11-21T11:58:26;1.73;;;0.60;;
51475;SDS011;37554;50.362;7.568;2022-11-21T12:00:59;1.38;;;0.73;;
51475;SDS011;37554;50.362;7.568;2022-11-21T12:03:42;1.85;;;0.60;;
51475;SDS011;37554;50.362;7.568;2022-11-21T12:06:15;1.55;;;0.80;;
51475;SDS011;37554;50.362;7.568;2022-11-21T12:09:06;2.22;;;0.70;;
51475;SDS011;37554;50.362;7.568;2022-11-21T12:17:18;2.53;;;0.90;;
51475;SDS011;37554;50.362;7.568;2022-11-21T12:19:49;2.42;;;0.60;;
51475;SDS011;37554;50.362;7.568;2022-11-21T12:22:16;2.50;;;0.70;;
51475;SDS011;37554;50.362;7.568;2022-11-21T12:24:42;1.77;;;0.60;;
51475;SDS011;37554;50.362;7.568;2022-11-21T12:27:23;1.10;;;0.68;;
51475;SDS011;37554;50.362;7.568;2022-11-21T12:30:01;2.05;;;0.80;;
51475;SDS011;37554;50.362;7.568;2022-11-21T12:32:54;1.90;;;0.95;;
51475;SDS011;37554;50.362;7.568;2022-11-21T12:44:11;1.70;;;0.88;;
51475;SDS011;37554;50.362;7.568;2022-11-21T12:49:23;3.65;;;0.82;;
51475;SDS011;37554;50.362;7.568;2022-11-21T12:52:23;1.25;;;0.70;;
51475;SDS011;37554;50.362;7.568;2022-11-21T12:58:06;1.15;;;0.60;;
51475;SDS011;37554;50.362;7.568;2022-11-21T13:05:48;1.88;;;0.70;;
51475;SDS011;37554;50.362;7.568;2022-11-21T13:08:18;1.67;;;0.82;;
51475;SDS011;37554;50.362;7.568;2022-11-21T13:11:04;1.17;;;0.50;;
51475;SDS011;37554;50.362;7.568;2022-11-21T13:13:54;1.58;;;0.57;;
51475;SDS011;37554;50.362;7.568;2022-11-21T13:16:25;3.50;;;0.60;;
51475;SDS011;37554;50.362;7.568;2022-11-21T13:19:11;1.25;;;0.50;;
51475;SDS011;37554;50.362;7.568;2022-11-21T13:24:07;2.13;;;0.50;;
51475;SDS011;37554;50.362;7.568;2022-11-21T13:31:37;1.33;;;0.60;;
51475;SDS011;37554;50.362;7.568;2022-11-21T13:34:04;1.05;;;0.60;;
51475;SDS011;37554;50.362;7.568;2022-11-21T13:36:56;1.38;;;0.60;;
51475;SDS011;37554;50.362;7.568;2022-11-21T13:44:43;1.55;;;0.40;;
51475;SDS011;37554;50.362;7.568;2022-11-21T13:58:49;1.60;;;0.50;;
51475;SDS011;37554;50.362;7.568;2022-11-21T14:06:56;2.17;;;0.60;;
51475;SDS011;37554;50.362;7.568;2022-11-21T14:09:47;4.32;;;0.70;;
51475;SDS011;37554;50.362;7.568;2022-11-21T14:12:20;1.60;;;0.57;;
51475;SDS011;37554;50.362;7.568;2022-11-21T14:20:21;2.65;;;0.70;;
51475;SDS011;37554;50.362;7.568;2022-11-21T14:25:18;4.85;;;0.73;;
51475;SDS011;37554;50.362;7.568;2022-11-21T14:27:46;1.33;;;0.63;;
51475;SDS011;37554;50.362;7.568;2022-11-21T14:30:37;2.25;;;0.98;;
51475;SDS011;37554;50.362;7.568;2022-11-21T14:38:43;3.47;;;1.38;;
51475;SDS011;37554;50.362;7.568;2022-11-21T14:46:38;2.80;;;1.20;;
51475;SDS011;37554;50.362;7.568;2022-11-21T14:51:39;3.15;;;1.10;;
51475;SDS011;37554;50.362;7.568;2022-11-21T14:54:13;3.92;;;1.50;;
51475;SDS011;37554;50.362;7.568;2022-11-21T14:56:42;3.85;;;1.70;;
51475;SDS011;37554;50.362;7.568;2022-11-21T14:59:14;3.00;;;1.35;;
51475;SDS011;37554;50.362;7.568;2022-11-21T15:04:41;4.03;;;1.30;;
51475;SDS011;37554;50.362;7.568;2022-11-21T15:07:42;2.95;;;1.17;;
51475;SDS011;37554;50.362;7.568;2022-11-21T15:10:05;3.10;;;1.40;;
51475;SDS011;37554;50.362;7.568;2022-11-21T15:12:40;2.28;;;0.85;;
51475;SDS011;37554;50.362;7.568;2022-11-21T15:15:30;1.88;;;0.95;;
51475;SDS011;37554;50.362;7.568;2022-11-21T15:18:00;2.17;;;1.13;;
51475;SDS011;37554;50.362;7.568;2022-11-21T15:20:28;2.22;;;1.27;;
51475;SDS011;37554;50.362;7.568;2022-11-21T15:22:55;2.33;;;1.00;;
51475;SDS011;37554;50.362;7.568;2022-11-21T15:25:29;2.40;;;1.00;;
51475;SDS011;37554;50.362;7.568;2022-11-21T15:30:25;2.83;;;0.85;;
51475;SDS011;37554;50.362;7.568;2022-11-21T15:38:27;3.30;;;1.00;;
51475;SDS011;37554;50.362;7.568;2022-11-21T15:48:48;6.07;;;1.42;;
51475;SDS011;37554;50.362;7.568;2022-11-21T15:51:15;2.35;;;1.00;;
51475;SDS011;37554;50.362;7.568;2022-11-21T15:53:42;2.50;;;1.17;;
51475;SDS011;37554;50.362;7.568;2022-11-21T15:56:09;2.13;;;1.00;;
51475;SDS011;37554;50.362;7.568;2022-11-21T15:58:39;2.40;;;1.15;;
51475;SDS011;37554;50.362;7.568;2022-11-21T16:01:05;1.75;;;0.90;;
51475;SDS011;37554;50.362;7.568;2022-11-21T16:03:35;2.85;;;1.10;;
51475;SDS011;37554;50.362;7.568;2022-11-21T16:06:00;2.78;;;1.23;;
51475;SDS011;37554;50.362;7.568;2022-11-21T16:08:26;1.90;;;1.02;;
51475;SDS011;37554;50.362;7.568;2022-11-21T16:10:52;1.58;;;0.82;;
51475;SDS011;37554;50.362;7.568;2022-11-21T16:13:17;2.42;;;0.90;;
51475;SDS011;37554;50.362;7.568;2022-11-21T16:15:43;3.63;;;1.02;;
51475;SDS011;37554;50.362;7.568;2022-11-21T16:18:08;3.40;;;1.00;;
51475;SDS011;37554;50.362;7.568;2022-11-21T16:20:34;3.70;;;0.93;;
51475;SDS011;37554;50.362;7.568;2022-11-21T16:22:59;3.50;;;1.13;;
51475;SDS011;37554;50.362;7.568;2022-11-21T16:25:25;1.70;;;0.75;;
51475;SDS011;37554;50.362;7.568;2022-11-21T16:27:51;2.63;;;0.90;;
51475;SDS011;37554;50.362;7.568;2022-11-21T16:30:16;3.17;;;0.73;;
51475;SDS011;37554;50.362;7.568;2022-11-21T16:32:42;4.53;;;1.00;;
51475;SDS011;37554;50.362;7.568;2022-11-21T16:35:08;2.47;;;0.70;;
51475;SDS011;37554;50.362;7.568;2022-11-21T16:37:34;1.83;;;0.80;;
51475;SDS011;37554;50.362;7.568;2022-11-21T16:39:59;1.90;;;0.63;;
51475;SDS011;37554;50.362;7.568;2022-11-21T16:42:25;2.30;;;0.80;;
51475;SDS011;37554;50.362;7.568;2022-11-21T16:44:50;4.00;;;0.70;;
51475;SDS011;37554;50.362;7.568;2022-11-21T16:47:16;4.55;;;0.77;;
51475;SDS011;37554;50.362;7.568;2022-11-21T16:49:41;3.47;;;0.88;;
51475;SDS011;37554;50.362;7.568;2022-11-21T16:52:11;1.33;;;0.70;;
51475;SDS011;37554;50.362;7.568;2022-11-21T16:54:36;2.58;;;0.80;;
51475;SDS011;37554;50.362;7.568;2022-11-21T16:57:02;1.63;;;0.68;;
51475;SDS011;37554;50.362;7.568;2022-11-21T16:59:28;1.30;;;0.68;;
51475;SDS011;37554;50.362;7.568;2022-11-21T17:01:56;3.25;;;0.77;;
51475;SDS011;37554;50.362;7.568;2022-11-21T17:04:22;1.92;;;1.17;;
51475;SDS011;37554;50.362;7.568;2022-11-21T17:06:47;2.50;;;0.95;;
51475;SDS011;37554;50.362;7.568;2022-11-21T17:09:14;2.28;;;0.80;;
51475;SDS011;37554;50.362;7.568;2022-11-21T17:11:40;1.95;;;0.75;;
51475;SDS011;37554;50.362;7.568;2022-11-21T17:14:05;1.33;;;0.63;;
51475;SDS011;37554;50.362;7.568;2022-11-21T17:16:32;1.75;;;0.70;;
51475;SDS011;37554;50.362;7.568;2022-11-21T17:18:59;1.50;;;0.63;;
51475;SDS011;37554;50.362;7.568;2022-11-21T17:21:27;2.50;;;1.02;;
51475;SDS011;37554;50.362;7.568;2022-11-21T17:23:54;2.92;;;0.90;;
51475;SDS011;37554;50.362;7.568;2022-11-21T17:26:21;1.73;;;0.77;;
51475;SDS011;37554;50.362;7.568;2022-11-21T17:28:55;2.22;;;0.80;;